sensor_id;sensor_type;location;lat;lon;timestamp;temperature;humidity
3190;DHT22;1606;51.946;10.558;2023-06-10T00:01:52;19.70;95.40
3190;DHT22;1606;51.946;10.558;2023-06-10T00:04:22;19.60;95.80
3190;DHT22;1606;51.946;10.558;2023-06-10T00:06:51;19.40;96.10
3190;DHT22;1606;51.946;10.558;2023-06-10T00:09:20;19.40;96.50
3190;DHT22;1606;51.946;10.558;2023-06-10T00:11:49;19.40;96.70
3190;DHT22;1606;51.946;10.558;2023-06-10T00:14:17;19.50;96.60
3190;DHT22;1606;51.946;10.558;2023-06-10T00:16:44;19.50;96.50
3190;DHT22;1606;51.946;10.558;2023-06-10T00:19:13;19.40;96.50
3190;DHT22;1606;51.946;10.558;2023-06-10T00:21:42;19.40;96.40
3190;DHT22;1606;51.946;10.558;2023-06-10T00:24:12;19.40;96.40
3190;DHT22;1606;51.946;10.558;2023-06-10T00:26:40;19.40;96.30
3190;DHT22;1606;51.946;10.558;2023-06-10T00:29:09;19.20;96.70
3190;DHT22;1606;51.946;10.558;2023-06-10T00:31:37;19.30;96.60
3190;DHT22;1606;51.946;10.558;2023-06-10T00:34:05;19.20;96.80
3190;DHT22;1606;51.946;10.558;2023-06-10T00:36:33;19.10;97.20
3190;DHT22;1606;51.946;10.558;2023-06-10T00:39:02;19.10;96.90
3190;DHT22;1606;51.946;10.558;2023-06-10T00:41:32;19.10;97.00
3190;DHT22;1606;51.946;10.558;2023-06-10T00:44:00;19.00;97.20
3190;DHT22;1606;51.946;10.558;2023-06-10T00:46:28;19.10;97.20
3190;DHT22;1606;51.946;10.558;2023-06-10T00:48:58;19.00;97.20
3190;DHT22;1606;51.946;10.558;2023-06-10T00:51:27;19.10;97.30
3190;DHT22;1606;51.946;10.558;2023-06-10T00:53:55;19.10;97.20
3190;DHT22;1606;51.946;10.558;2023-06-10T00:56:23;19.20;97.20
3190;DHT22;1606;51.946;10.558;2023-06-10T00:58:53;19.20;97.00
3190;DHT22;1606;51.946;10.558;2023-06-10T01:01:21;19.30;96.80
3190;DHT22;1606;51.946;10.558;2023-06-10T01:03:49;19.30;96.60
3190;DHT22;1606;51.946;10.558;2023-06-10T01:06:24;19.20;96.70
3190;DHT22;1606;51.946;10.558;2023-06-10T01:08:56;19.20;96.40
3190;DHT22;1606;51.946;10.558;2023-06-10T01:11:33;19.10;96.40
3190;DHT22;1606;51.946;10.558;2023-06-10T01:14:03;19.10;96.50
3190;DHT22;1606;51.946;10.558;2023-06-10T01:16:34;19.10;96.60
3190;DHT22;1606;51.946;10.558;2023-06-10T01:19:03;19.00;96.40
3190;DHT22;1606;51.946;10.558;2023-06-10T01:21:34;19.00;96.30
3190;DHT22;1606;51.946;10.558;2023-06-10T01:24:03;18.80;96.30
3190;DHT22;1606;51.946;10.558;2023-06-10T01:26:35;18.70;96.60
3190;DHT22;1606;51.946;10.558;2023-06-10T01:29:07;18.60;96.80
3190;DHT22;1606;51.946;10.558;2023-06-10T01:31:42;18.60;97.20
3190;DHT22;1606;51.946;10.558;2023-06-10T01:34:14;18.60;97.20
3190;DHT22;1606;51.946;10.558;2023-06-10T01:36:47;18.30;97.60
3190;DHT22;1606;51.946;10.558;2023-06-10T01:39:16;18.20;97.70
3190;DHT22;1606;51.946;10.558;2023-06-10T01:41:45;18.30;98.00
3190;DHT22;1606;51.946;10.558;2023-06-10T01:44:18;18.40;97.90
3190;DHT22;1606;51.946;10.558;2023-06-10T01:46:46;18.50;97.70
3190;DHT22;1606;51.946;10.558;2023-06-10T01:49:14;18.50;97.50
3190;DHT22;1606;51.946;10.558;2023-06-10T01:51:56;18.60;97.50
3190;DHT22;1606;51.946;10.558;2023-06-10T01:54:23;18.70;97.40
3190;DHT22;1606;51.946;10.558;2023-06-10T01:56:51;18.70;97.20
3190;DHT22;1606;51.946;10.558;2023-06-10T01:59:19;18.50;97.30
3190;DHT22;1606;51.946;10.558;2023-06-10T02:01:47;18.40;97.40
3190;DHT22;1606;51.946;10.558;2023-06-10T02:04:15;18.20;97.70
3190;DHT22;1606;51.946;10.558;2023-06-10T02:06:43;18.20;97.90
3190;DHT22;1606;51.946;10.558;2023-06-10T02:09:13;18.30;97.70
3190;DHT22;1606;51.946;10.558;2023-06-10T02:11:40;18.20;97.60
3190;DHT22;1606;51.946;10.558;2023-06-10T02:14:08;18.20;97.80
3190;DHT22;1606;51.946;10.558;2023-06-10T02:16:36;18.30;97.90
3190;DHT22;1606;51.946;10.558;2023-06-10T02:19:04;18.30;97.80
3190;DHT22;1606;51.946;10.558;2023-06-10T02:21:33;18.10;98.00
3190;DHT22;1606;51.946;10.558;2023-06-10T02:24:01;18.10;98.20
3190;DHT22;1606;51.946;10.558;2023-06-10T02:26:31;18.20;97.80
3190;DHT22;1606;51.946;10.558;2023-06-10T02:28:59;18.20;97.90
3190;DHT22;1606;51.946;10.558;2023-06-10T02:31:27;18.10;98.10
3190;DHT22;1606;51.946;10.558;2023-06-10T02:33:55;18.00;98.40
3190;DHT22;1606;51.946;10.558;2023-06-10T02:36:23;18.10;98.40
3190;DHT22;1606;51.946;10.558;2023-06-10T02:38:54;18.10;98.20
3190;DHT22;1606;51.946;10.558;2023-06-10T02:41:22;18.20;98.10
3190;DHT22;1606;51.946;10.558;2023-06-10T02:43:52;18.10;98.10
3190;DHT22;1606;51.946;10.558;2023-06-10T02:46:20;18.00;98.50
3190;DHT22;1606;51.946;10.558;2023-06-10T02:48:48;17.80;98.60
3190;DHT22;1606;51.946;10.558;2023-06-10T02:51:18;17.80;99.30
3190;DHT22;1606;51.946;10.558;2023-06-10T02:53:47;17.70;99.70
3190;DHT22;1606;51.946;10.558;2023-06-10T02:56:16;17.90;99.90
3190;DHT22;1606;51.946;10.558;2023-06-10T02:58:44;18.00;99.50
3190;DHT22;1606;51.946;10.558;2023-06-10T03:01:14;18.20;99.20
3190;DHT22;1606;51.946;10.558;2023-06-10T03:03:41;18.10;99.10
3190;DHT22;1606;51.946;10.558;2023-06-10T03:06:10;18.10;99.00
3190;DHT22;1606;51.946;10.558;2023-06-10T03:08:39;18.00;99.30
3190;DHT22;1606;51.946;10.558;2023-06-10T03:11:07;17.90;99.50
3190;DHT22;1606;51.946;10.558;2023-06-10T03:13:34;18.00;99.60
3190;DHT22;1606;51.946;10.558;2023-06-10T03:16:03;18.00;99.30
3190;DHT22;1606;51.946;10.558;2023-06-10T03:18:32;18.00;99.50
3190;DHT22;1606;51.946;10.558;2023-06-10T03:21:00;18.00;99.40
3190;DHT22;1606;51.946;10.558;2023-06-10T03:23:29;17.90;99.40
3190;DHT22;1606;51.946;10.558;2023-06-10T03:25:57;17.90;99.50
3190;DHT22;1606;51.946;10.558;2023-06-10T03:28:25;18.00;99.20
3190;DHT22;1606;51.946;10.558;2023-06-10T03:30:52;18.00;99.20
3190;DHT22;1606;51.946;10.558;2023-06-10T03:33:21;18.10;99.00
3190;DHT22;1606;51.946;10.558;2023-06-10T03:35:50;18.00;99.10
3190;DHT22;1606;51.946;10.558;2023-06-10T03:38:18;18.00;99.20
3190;DHT22;1606;51.946;10.558;2023-06-10T03:40:47;18.00;99.20
3190;DHT22;1606;51.946;10.558;2023-06-10T03:43:14;18.00;99.30
3190;DHT22;1606;51.946;10.558;2023-06-10T03:45:42;18.00;99.30
3190;DHT22;1606;51.946;10.558;2023-06-10T03:48:11;18.00;99.30
3190;DHT22;1606;51.946;10.558;2023-06-10T03:50:39;18.10;99.50
3190;DHT22;1606;51.946;10.558;2023-06-10T03:53:08;18.10;99.30
3190;DHT22;1606;51.946;10.558;2023-06-10T03:55:36;18.00;99.40
3190;DHT22;1606;51.946;10.558;2023-06-10T03:58:04;17.90;99.70
3190;DHT22;1606;51.946;10.558;2023-06-10T04:00:32;17.80;99.90
3190;DHT22;1606;51.946;10.558;2023-06-10T04:03:08;17.70;99.90
3190;DHT22;1606;51.946;10.558;2023-06-10T04:05:41;17.80;99.90
3190;DHT22;1606;51.946;10.558;2023-06-10T04:08:10;17.90;99.90
3190;DHT22;1606;51.946;10.558;2023-06-10T04:10:38;17.80;99.90
3190;DHT22;1606;51.946;10.558;2023-06-10T04:13:06;18.00;99.90
3190;DHT22;1606;51.946;10.558;2023-06-10T04:15:34;18.00;99.90
3190;DHT22;1606;51.946;10.558;2023-06-10T04:18:01;18.10;99.90
3190;DHT22;1606;51.946;10.558;2023-06-10T04:20:29;18.10;99.90
3190;DHT22;1606;51.946;10.558;2023-06-10T04:22:57;18.00;99.90
3190;DHT22;1606;51.946;10.558;2023-06-10T04:25:27;18.10;99.90
3190;DHT22;1606;51.946;10.558;2023-06-10T04:27:55;18.00;99.90
3190;DHT22;1606;51.946;10.558;2023-06-10T04:30:23;18.10;99.90
3190;DHT22;1606;51.946;10.558;2023-06-10T04:32:51;18.20;99.90
3190;DHT22;1606;51.946;10.558;2023-06-10T04:35:19;18.10;99.90
3190;DHT22;1606;51.946;10.558;2023-06-10T04:37:46;18.10;99.90
3190;DHT22;1606;51.946;10.558;2023-06-10T04:40:14;18.10;99.90
3190;DHT22;1606;51.946;10.558;2023-06-10T04:42:44;18.00;99.90
3190;DHT22;1606;51.946;10.558;2023-06-10T04:45:12;18.00;99.90
3190;DHT22;1606;51.946;10.558;2023-06-10T04:47:40;18.00;99.90
3190;DHT22;1606;51.946;10.558;2023-06-10T04:50:08;17.90;99.90
3190;DHT22;1606;51.946;10.558;2023-06-10T04:52:36;17.90;99.90
3190;DHT22;1606;51.946;10.558;2023-06-10T04:55:05;17.70;99.90
3190;DHT22;1606;51.946;10.558;2023-06-10T04:57:33;17.50;99.90
3190;DHT22;1606;51.946;10.558;2023-06-10T05:00:03;17.50;99.90
3190;DHT22;1606;51.946;10.558;2023-06-10T05:02:32;17.60;99.90
3190;DHT22;1606;51.946;10.558;2023-06-10T05:05:00;17.80;99.90
3190;DHT22;1606;51.946;10.558;2023-06-10T05:07:28;18.00;99.90
3190;DHT22;1606;51.946;10.558;2023-06-10T05:09:56;18.20;99.90
3190;DHT22;1606;51.946;10.558;2023-06-10T05:12:23;18.30;99.90
3190;DHT22;1606;51.946;10.558;2023-06-10T05:14:51;18.40;99.90
3190;DHT22;1606;51.946;10.558;2023-06-10T05:17:21;18.40;99.90
3190;DHT22;1606;51.946;10.558;2023-06-10T05:19:49;18.20;99.90
3190;DHT22;1606;51.946;10.558;2023-06-10T05:22:17;18.20;99.90
3190;DHT22;1606;51.946;10.558;2023-06-10T05:24:45;18.20;99.90
3190;DHT22;1606;51.946;10.558;2023-06-10T05:27:13;18.40;99.90
3190;DHT22;1606;51.946;10.558;2023-06-10T05:29:41;18.60;99.90
3190;DHT22;1606;51.946;10.558;2023-06-10T05:32:09;18.70;99.90
3190;DHT22;1606;51.946;10.558;2023-06-10T05:34:38;18.80;99.90
3190;DHT22;1606;51.946;10.558;2023-06-10T05:37:06;18.80;99.90
3190;DHT22;1606;51.946;10.558;2023-06-10T05:39:35;18.60;99.90
3190;DHT22;1606;51.946;10.558;2023-06-10T05:42:05;18.70;99.90
3190;DHT22;1606;51.946;10.558;2023-06-10T05:44:33;18.90;99.90
3190;DHT22;1606;51.946;10.558;2023-06-10T05:47:01;19.00;99.90
3190;DHT22;1606;51.946;10.558;2023-06-10T05:49:29;19.10;99.90
3190;DHT22;1606;51.946;10.558;2023-06-10T05:51:58;19.00;99.90
3190;DHT22;1606;51.946;10.558;2023-06-10T05:54:26;18.90;99.90
3190;DHT22;1606;51.946;10.558;2023-06-10T05:56:56;19.00;99.90
3190;DHT22;1606;51.946;10.558;2023-06-10T05:59:24;19.20;99.90
3190;DHT22;1606;51.946;10.558;2023-06-10T06:01:51;19.30;99.90
3190;DHT22;1606;51.946;10.558;2023-06-10T06:04:19;19.50;99.90
3190;DHT22;1606;51.946;10.558;2023-06-10T06:06:47;19.50;99.90
3190;DHT22;1606;51.946;10.558;2023-06-10T06:09:16;19.40;99.90
3190;DHT22;1606;51.946;10.558;2023-06-10T06:11:44;19.30;99.90
3190;DHT22;1606;51.946;10.558;2023-06-10T06:14:12;19.50;99.90
3190;DHT22;1606;51.946;10.558;2023-06-10T06:16:40;19.60;99.90
3190;DHT22;1606;51.946;10.558;2023-06-10T06:19:08;19.70;99.90
3190;DHT22;1606;51.946;10.558;2023-06-10T06:21:36;19.70;99.90
3190;DHT22;1606;51.946;10.558;2023-06-10T06:24:04;20.00;99.90
3190;DHT22;1606;51.946;10.558;2023-06-10T06:26:33;20.40;99.90
3190;DHT22;1606;51.946;10.558;2023-06-10T06:29:01;20.40;99.90
3190;DHT22;1606;51.946;10.558;2023-06-10T06:31:30;20.40;99.90
3190;DHT22;1606;51.946;10.558;2023-06-10T06:33:58;20.50;99.90
3190;DHT22;1606;51.946;10.558;2023-06-10T06:36:25;20.60;99.90
3190;DHT22;1606;51.946;10.558;2023-06-10T06:38:53;20.50;99.90
3190;DHT22;1606;51.946;10.558;2023-06-10T06:41:21;20.40;99.90
3190;DHT22;1606;51.946;10.558;2023-06-10T06:43:50;20.10;99.90
3190;DHT22;1606;51.946;10.558;2023-06-10T06:46:18;20.30;99.90
3190;DHT22;1606;51.946;10.558;2023-06-10T06:48:46;20.70;99.90
3190;DHT22;1606;51.946;10.558;2023-06-10T06:51:14;20.90;99.90
3190;DHT22;1606;51.946;10.558;2023-06-10T06:53:42;21.00;99.90
3190;DHT22;1606;51.946;10.558;2023-06-10T06:56:12;20.80;99.90
3190;DHT22;1606;51.946;10.558;2023-06-10T06:58:40;20.90;99.90
3190;DHT22;1606;51.946;10.558;2023-06-10T07:01:09;21.00;99.90
3190;DHT22;1606;51.946;10.558;2023-06-10T07:03:37;21.20;99.90
3190;DHT22;1606;51.946;10.558;2023-06-10T07:06:05;21.20;99.90
3190;DHT22;1606;51.946;10.558;2023-06-10T07:08:33;21.50;99.90
3190;DHT22;1606;51.946;10.558;2023-06-10T07:11:01;21.30;99.90
3190;DHT22;1606;51.946;10.558;2023-06-10T07:13:28;21.40;99.90
3190;DHT22;1606;51.946;10.558;2023-06-10T07:15:56;21.80;99.90
3190;DHT22;1606;51.946;10.558;2023-06-10T07:18:25;21.90;99.90
3190;DHT22;1606;51.946;10.558;2023-06-10T07:20:53;21.70;99.90
3190;DHT22;1606;51.946;10.558;2023-06-10T07:23:21;21.90;99.90
3190;DHT22;1606;51.946;10.558;2023-06-10T07:25:49;22.10;99.90
3190;DHT22;1606;51.946;10.558;2023-06-10T07:28:17;22.10;99.90
3190;DHT22;1606;51.946;10.558;2023-06-10T07:30:45;22.00;99.90
3190;DHT22;1606;51.946;10.558;2023-06-10T07:33:12;21.90;99.90
3190;DHT22;1606;51.946;10.558;2023-06-10T07:35:42;21.90;99.90
3190;DHT22;1606;51.946;10.558;2023-06-10T07:38:10;21.90;99.90
3190;DHT22;1606;51.946;10.558;2023-06-10T07:40:38;22.00;99.90
3190;DHT22;1606;51.946;10.558;2023-06-10T07:43:06;22.10;99.90
3190;DHT22;1606;51.946;10.558;2023-06-10T07:45:34;22.30;99.90
3190;DHT22;1606;51.946;10.558;2023-06-10T07:48:02;22.50;99.90
3190;DHT22;1606;51.946;10.558;2023-06-10T07:50:30;22.80;99.40
3190;DHT22;1606;51.946;10.558;2023-06-10T07:52:59;23.10;98.60
3190;DHT22;1606;51.946;10.558;2023-06-10T07:55:27;23.20;98.40
3190;DHT22;1606;51.946;10.558;2023-06-10T07:57:55;23.30;99.10
3190;DHT22;1606;51.946;10.558;2023-06-10T08:00:23;23.50;98.10
3190;DHT22;1606;51.946;10.558;2023-06-10T08:02:51;23.40;97.10
3190;DHT22;1606;51.946;10.558;2023-06-10T08:05:19;23.00;98.40
3190;DHT22;1606;51.946;10.558;2023-06-10T08:07:48;23.30;98.50
3190;DHT22;1606;51.946;10.558;2023-06-10T08:10:17;23.60;97.30
3190;DHT22;1606;51.946;10.558;2023-06-10T08:12:45;23.90;97.10
3190;DHT22;1606;51.946;10.558;2023-06-10T08:15:13;23.80;98.70
3190;DHT22;1606;51.946;10.558;2023-06-10T08:17:41;24.00;97.80
3190;DHT22;1606;51.946;10.558;2023-06-10T08:20:09;24.20;96.90
3190;DHT22;1606;51.946;10.558;2023-06-10T08:22:37;24.50;97.40
3190;DHT22;1606;51.946;10.558;2023-06-10T08:25:06;24.50;97.20
3190;DHT22;1606;51.946;10.558;2023-06-10T08:27:35;24.50;97.70
3190;DHT22;1606;51.946;10.558;2023-06-10T08:30:04;24.20;96.90
3190;DHT22;1606;51.946;10.558;2023-06-10T08:32:32;24.30;97.50
3190;DHT22;1606;51.946;10.558;2023-06-10T08:35:00;24.30;97.50
3190;DHT22;1606;51.946;10.558;2023-06-10T08:37:28;24.80;95.90
3190;DHT22;1606;51.946;10.558;2023-06-10T08:39:55;24.60;96.80
3190;DHT22;1606;51.946;10.558;2023-06-10T08:42:28;24.90;97.00
3190;DHT22;1606;51.946;10.558;2023-06-10T08:44:57;24.70;97.50
3190;DHT22;1606;51.946;10.558;2023-06-10T08:47:30;24.70;97.60
3190;DHT22;1606;51.946;10.558;2023-06-10T08:50:02;24.70;96.30
3190;DHT22;1606;51.946;10.558;2023-06-10T08:52:36;24.70;97.40
3190;DHT22;1606;51.946;10.558;2023-06-10T08:55:09;25.00;96.90
3190;DHT22;1606;51.946;10.558;2023-06-10T08:57:38;24.90;95.90
3190;DHT22;1606;51.946;10.558;2023-06-10T09:00:09;25.10;95.90
3190;DHT22;1606;51.946;10.558;2023-06-10T09:02:38;25.10;96.40
3190;DHT22;1606;51.946;10.558;2023-06-10T09:05:07;25.50;95.30
3190;DHT22;1606;51.946;10.558;2023-06-10T09:07:35;25.50;96.30
3190;DHT22;1606;51.946;10.558;2023-06-10T09:10:04;26.00;95.80
3190;DHT22;1606;51.946;10.558;2023-06-10T09:12:34;26.20;94.80
3190;DHT22;1606;51.946;10.558;2023-06-10T09:15:05;26.20;94.30
3190;DHT22;1606;51.946;10.558;2023-06-10T09:17:35;26.50;93.60
3190;DHT22;1606;51.946;10.558;2023-06-10T09:20:05;26.70;93.40
3190;DHT22;1606;51.946;10.558;2023-06-10T09:22:36;26.70;93.50
3190;DHT22;1606;51.946;10.558;2023-06-10T09:25:06;26.50;93.70
3190;DHT22;1606;51.946;10.558;2023-06-10T09:27:44;26.20;95.20
3190;DHT22;1606;51.946;10.558;2023-06-10T09:30:26;26.40;95.60
3190;DHT22;1606;51.946;10.558;2023-06-10T09:32:57;27.00;94.00
3190;DHT22;1606;51.946;10.558;2023-06-10T09:35:26;27.40;91.90
3190;DHT22;1606;51.946;10.558;2023-06-10T09:37:56;27.50;92.80
3190;DHT22;1606;51.946;10.558;2023-06-10T09:40:24;27.20;93.40
3190;DHT22;1606;51.946;10.558;2023-06-10T09:42:53;27.00;93.40
3190;DHT22;1606;51.946;10.558;2023-06-10T09:45:25;27.20;94.30
3190;DHT22;1606;51.946;10.558;2023-06-10T09:47:58;27.60;93.00
3190;DHT22;1606;51.946;10.558;2023-06-10T09:50:26;27.50;93.30
3190;DHT22;1606;51.946;10.558;2023-06-10T09:52:54;27.80;93.10
3190;DHT22;1606;51.946;10.558;2023-06-10T09:55:22;27.90;93.10
3190;DHT22;1606;51.946;10.558;2023-06-10T09:57:53;28.00;91.10
3190;DHT22;1606;51.946;10.558;2023-06-10T10:00:22;28.00;91.70
3190;DHT22;1606;51.946;10.558;2023-06-10T10:02:53;28.10;91.10
3190;DHT22;1606;51.946;10.558;2023-06-10T10:05:22;28.20;91.30
3190;DHT22;1606;51.946;10.558;2023-06-10T10:07:51;28.20;90.70
3190;DHT22;1606;51.946;10.558;2023-06-10T10:10:20;28.40;90.50
3190;DHT22;1606;51.946;10.558;2023-06-10T10:12:52;28.80;90.40
3190;DHT22;1606;51.946;10.558;2023-06-10T10:15:24;28.50;90.10
3190;DHT22;1606;51.946;10.558;2023-06-10T10:17:56;28.70;91.40
3190;DHT22;1606;51.946;10.558;2023-06-10T10:20:30;29.10;89.70
3190;DHT22;1606;51.946;10.558;2023-06-10T10:22:59;29.20;89.10
3190;DHT22;1606;51.946;10.558;2023-06-10T10:25:34;29.00;89.30
3190;DHT22;1606;51.946;10.558;2023-06-10T10:28:07;28.60;89.00
3190;DHT22;1606;51.946;10.558;2023-06-10T10:30:39;28.20;90.60
3190;DHT22;1606;51.946;10.558;2023-06-10T10:33:12;27.90;90.10
3190;DHT22;1606;51.946;10.558;2023-06-10T10:35:42;28.10;91.10
3190;DHT22;1606;51.946;10.558;2023-06-10T10:38:12;28.60;91.40
3190;DHT22;1606;51.946;10.558;2023-06-10T10:40:40;28.80;90.40
3190;DHT22;1606;51.946;10.558;2023-06-10T10:43:10;28.90;89.20
3190;DHT22;1606;51.946;10.558;2023-06-10T10:45:38;28.90;90.30
3190;DHT22;1606;51.946;10.558;2023-06-10T10:48:08;29.20;90.20
3190;DHT22;1606;51.946;10.558;2023-06-10T10:50:39;29.00;89.80
3190;DHT22;1606;51.946;10.558;2023-06-10T10:53:09;29.00;91.40
3190;DHT22;1606;51.946;10.558;2023-06-10T10:55:37;29.40;88.30
3190;DHT22;1606;51.946;10.558;2023-06-10T10:58:06;29.50;88.30
3190;DHT22;1606;51.946;10.558;2023-06-10T11:00:35;29.40;87.70
3190;DHT22;1606;51.946;10.558;2023-06-10T11:03:07;29.20;89.00
3190;DHT22;1606;51.946;10.558;2023-06-10T11:05:39;29.30;90.00
3190;DHT22;1606;51.946;10.558;2023-06-10T11:08:09;29.20;90.00
3190;DHT22;1606;51.946;10.558;2023-06-10T11:10:39;29.40;86.70
3190;DHT22;1606;51.946;10.558;2023-06-10T11:13:13;29.70;87.80
3190;DHT22;1606;51.946;10.558;2023-06-10T11:15:44;30.00;86.10
3190;DHT22;1606;51.946;10.558;2023-06-10T11:18:19;30.10;86.80
3190;DHT22;1606;51.946;10.558;2023-06-10T11:20:52;30.10;85.30
3190;DHT22;1606;51.946;10.558;2023-06-10T11:23:38;29.90;85.30
3190;DHT22;1606;51.946;10.558;2023-06-10T11:26:30;30.00;87.10
3190;DHT22;1606;51.946;10.558;2023-06-10T11:29:05;30.60;83.90
3190;DHT22;1606;51.946;10.558;2023-06-10T11:34:22;30.80;84.70
3190;DHT22;1606;51.946;10.558;2023-06-10T11:36:54;31.30;81.90
3190;DHT22;1606;51.946;10.558;2023-06-10T11:39:23;31.60;82.90
3190;DHT22;1606;51.946;10.558;2023-06-10T11:41:53;31.50;76.40
3190;DHT22;1606;51.946;10.558;2023-06-10T11:44:27;31.50;78.60
3190;DHT22;1606;51.946;10.558;2023-06-10T11:46:56;31.50;79.10
3190;DHT22;1606;51.946;10.558;2023-06-10T11:49:24;31.20;78.00
3190;DHT22;1606;51.946;10.558;2023-06-10T11:51:52;31.30;78.80
3190;DHT22;1606;51.946;10.558;2023-06-10T11:54:20;31.30;77.50
3190;DHT22;1606;51.946;10.558;2023-06-10T11:56:50;31.70;73.90
3190;DHT22;1606;51.946;10.558;2023-06-10T11:59:18;31.70;78.20
3190;DHT22;1606;51.946;10.558;2023-06-10T12:01:46;31.40;77.80
3190;DHT22;1606;51.946;10.558;2023-06-10T12:04:15;31.60;79.90
3190;DHT22;1606;51.946;10.558;2023-06-10T12:06:46;32.10;75.80
3190;DHT22;1606;51.946;10.558;2023-06-10T12:09:16;32.20;72.80
3190;DHT22;1606;51.946;10.558;2023-06-10T12:11:55;32.10;75.40
3190;DHT22;1606;51.946;10.558;2023-06-10T12:14:53;32.10;75.60
3190;DHT22;1606;51.946;10.558;2023-06-10T12:17:27;32.40;70.60
3190;DHT22;1606;51.946;10.558;2023-06-10T12:20:05;32.30;75.80
3190;DHT22;1606;51.946;10.558;2023-06-10T12:22:37;32.50;74.50
3190;DHT22;1606;51.946;10.558;2023-06-10T12:25:06;32.70;74.60
3190;DHT22;1606;51.946;10.558;2023-06-10T12:27:37;32.80;73.20
3190;DHT22;1606;51.946;10.558;2023-06-10T12:30:06;33.00;72.70
3190;DHT22;1606;51.946;10.558;2023-06-10T12:32:39;33.00;72.60
3190;DHT22;1606;51.946;10.558;2023-06-10T12:35:09;33.00;72.40
3190;DHT22;1606;51.946;10.558;2023-06-10T12:37:39;33.00;70.00
3190;DHT22;1606;51.946;10.558;2023-06-10T12:40:10;32.80;70.40
3190;DHT22;1606;51.946;10.558;2023-06-10T12:42:40;32.60;72.90
3190;DHT22;1606;51.946;10.558;2023-06-10T12:45:09;32.80;66.80
3190;DHT22;1606;51.946;10.558;2023-06-10T12:47:38;33.00;70.50
3190;DHT22;1606;51.946;10.558;2023-06-10T12:50:07;33.00;67.90
3190;DHT22;1606;51.946;10.558;2023-06-10T12:52:36;33.10;72.70
3190;DHT22;1606;51.946;10.558;2023-06-10T12:55:05;32.70;70.20
3190;DHT22;1606;51.946;10.558;2023-06-10T12:57:33;32.70;69.30
3190;DHT22;1606;51.946;10.558;2023-06-10T13:00:03;32.50;71.00
3190;DHT22;1606;51.946;10.558;2023-06-10T13:02:35;32.90;67.50
3190;DHT22;1606;51.946;10.558;2023-06-10T13:05:03;33.20;71.30
3190;DHT22;1606;51.946;10.558;2023-06-10T13:07:31;33.40;68.80
3190;DHT22;1606;51.946;10.558;2023-06-10T13:09:59;33.40;65.80
3190;DHT22;1606;51.946;10.558;2023-06-10T13:12:28;33.10;67.20
3190;DHT22;1606;51.946;10.558;2023-06-10T13:15:14;33.10;64.50
3190;DHT22;1606;51.946;10.558;2023-06-10T13:17:42;33.20;66.90
3190;DHT22;1606;51.946;10.558;2023-06-10T13:20:12;33.30;67.10
3190;DHT22;1606;51.946;10.558;2023-06-10T13:22:40;33.40;65.20
3190;DHT22;1606;51.946;10.558;2023-06-10T13:25:09;33.30;65.40
3190;DHT22;1606;51.946;10.558;2023-06-10T13:27:38;33.00;66.70
3190;DHT22;1606;51.946;10.558;2023-06-10T13:30:07;33.20;66.90
3190;DHT22;1606;51.946;10.558;2023-06-10T13:32:37;32.90;70.10
3190;DHT22;1606;51.946;10.558;2023-06-10T13:35:05;33.00;68.50
3190;DHT22;1606;51.946;10.558;2023-06-10T13:37:34;33.50;64.60
3190;DHT22;1606;51.946;10.558;2023-06-10T13:40:03;33.90;60.60
3190;DHT22;1606;51.946;10.558;2023-06-10T13:42:32;34.00;61.30
3190;DHT22;1606;51.946;10.558;2023-06-10T13:45:00;34.20;58.70
3190;DHT22;1606;51.946;10.558;2023-06-10T13:47:28;34.40;59.10
3190;DHT22;1606;51.946;10.558;2023-06-10T13:49:57;34.30;59.40
3190;DHT22;1606;51.946;10.558;2023-06-10T13:52:24;34.50;58.10
3190;DHT22;1606;51.946;10.558;2023-06-10T13:54:52;34.40;58.20
3190;DHT22;1606;51.946;10.558;2023-06-10T13:57:20;34.40;58.60
3190;DHT22;1606;51.946;10.558;2023-06-10T13:59:48;34.40;59.90
3190;DHT22;1606;51.946;10.558;2023-06-10T14:02:16;34.50;59.30
3190;DHT22;1606;51.946;10.558;2023-06-10T14:04:44;34.60;57.90
3190;DHT22;1606;51.946;10.558;2023-06-10T14:07:13;34.60;58.60
3190;DHT22;1606;51.946;10.558;2023-06-10T14:09:41;34.60;58.00
3190;DHT22;1606;51.946;10.558;2023-06-10T14:12:09;34.70;57.50
3190;DHT22;1606;51.946;10.558;2023-06-10T14:14:37;34.70;57.90
3190;DHT22;1606;51.946;10.558;2023-06-10T14:17:05;34.30;61.70
3190;DHT22;1606;51.946;10.558;2023-06-10T14:19:33;34.10;60.90
3190;DHT22;1606;51.946;10.558;2023-06-10T14:22:01;33.80;62.10
3190;DHT22;1606;51.946;10.558;2023-06-10T14:24:34;33.30;62.20
3190;DHT22;1606;51.946;10.558;2023-06-10T14:27:03;32.90;61.70
3190;DHT22;1606;51.946;10.558;2023-06-10T14:29:31;32.80;64.80
3190;DHT22;1606;51.946;10.558;2023-06-10T14:32:00;32.60;62.90
3190;DHT22;1606;51.946;10.558;2023-06-10T14:34:31;32.80;64.40
3190;DHT22;1606;51.946;10.558;2023-06-10T14:37:00;32.60;62.60
3190;DHT22;1606;51.946;10.558;2023-06-10T14:39:29;32.30;61.60
3190;DHT22;1606;51.946;10.558;2023-06-10T14:41:59;32.10;62.90
3190;DHT22;1606;51.946;10.558;2023-06-10T14:44:27;32.10;64.70
3190;DHT22;1606;51.946;10.558;2023-06-10T14:46:54;31.90;64.00
3190;DHT22;1606;51.946;10.558;2023-06-10T14:49:22;31.90;66.50
3190;DHT22;1606;51.946;10.558;2023-06-10T14:51:50;31.80;66.50
3190;DHT22;1606;51.946;10.558;2023-06-10T14:54:18;32.00;63.40
3190;DHT22;1606;51.946;10.558;2023-06-10T14:56:46;32.20;60.60
3190;DHT22;1606;51.946;10.558;2023-06-10T14:59:15;32.30;59.80
3190;DHT22;1606;51.946;10.558;2023-06-10T15:01:43;32.30;61.50
3190;DHT22;1606;51.946;10.558;2023-06-10T15:04:10;32.30;61.50
3190;DHT22;1606;51.946;10.558;2023-06-10T15:06:38;32.20;63.50
3190;DHT22;1606;51.946;10.558;2023-06-10T15:09:06;31.60;65.40
3190;DHT22;1606;51.946;10.558;2023-06-10T15:11:34;31.50;66.60
3190;DHT22;1606;51.946;10.558;2023-06-10T15:14:04;31.30;64.90
3190;DHT22;1606;51.946;10.558;2023-06-10T15:16:33;31.30;63.90
3190;DHT22;1606;51.946;10.558;2023-06-10T15:19:01;31.40;61.20
3190;DHT22;1606;51.946;10.558;2023-06-10T15:21:29;31.50;58.90
3190;DHT22;1606;51.946;10.558;2023-06-10T15:23:57;31.60;61.00
3190;DHT22;1606;51.946;10.558;2023-06-10T15:26:25;31.40;69.60
3190;DHT22;1606;51.946;10.558;2023-06-10T15:28:53;31.30;70.40
3190;DHT22;1606;51.946;10.558;2023-06-10T15:31:21;31.30;66.80
3190;DHT22;1606;51.946;10.558;2023-06-10T15:33:51;31.20;66.60
3190;DHT22;1606;51.946;10.558;2023-06-10T15:36:18;31.00;66.50
3190;DHT22;1606;51.946;10.558;2023-06-10T15:38:46;30.70;66.80
3190;DHT22;1606;51.946;10.558;2023-06-10T15:41:14;30.50;66.80
3190;DHT22;1606;51.946;10.558;2023-06-10T15:43:42;30.00;68.80
3190;DHT22;1606;51.946;10.558;2023-06-10T15:46:10;29.60;70.10
3190;DHT22;1606;51.946;10.558;2023-06-10T15:48:38;28.90;70.50
3190;DHT22;1606;51.946;10.558;2023-06-10T15:51:07;28.50;72.10
3190;DHT22;1606;51.946;10.558;2023-06-10T15:53:35;28.40;72.20
3190;DHT22;1606;51.946;10.558;2023-06-10T15:56:03;28.30;71.80
3190;DHT22;1606;51.946;10.558;2023-06-10T15:58:31;28.20;70.50
3190;DHT22;1606;51.946;10.558;2023-06-10T16:00:59;28.00;71.40